Aérodrome :
LOGIN :

S'inscrire | Disclaimer

   EN    FR    IT 

 










Légende :    VFR   VFR Marginal   IFR   IFR Intensif   IFR Très Intensif
Visi : 
Plafond : 
>= 8 km
>= 3000ft
5 à 8 km
1000 à 3000 ft
1500m à 5 km
500 à 1000 ft
800 à 1500m
200 à 500 ft
< 800m
< 200 ft
Symboles :   Orages  Brouillard  Fortes neiges  Fortes précipitations  Vent > 20 kt
SIGMETs :   Divers  Orages  Givrage  Turbulence  Onde Orograph.  Cendres Volcan.







- Altitude de l'aérodrome : 26 ft
- Code IATA : BIA
- Voir les cartes d'approche


LFKB - Bastia

DERNIER METAR :
  • 251200Z AUTO 09007KT 9999 BKN020 BKN025 22/17 Q1017 NOSIG

METARs EXPIRÉS :
  • 251130Z AUTO 07006KT 040V100 9999 BKN019 21/16 Q1018 NOSIG
  • 251100Z AUTO 08007KT 030V110 9999 BKN019 21/16 Q1018 NOSIG
  • 251030Z AUTO 09006KT 050V130 9999 BKN019 21/17 Q1018 NOSIG
  • 251000Z AUTO 08005KT 030V110 9999 FEW014 BKN021 21/17 Q1018 NOSIG
  • 250930Z AUTO 10006KT 050V130 9999 FEW018 21/17 Q1018 NOSIG

TAF TAF LFKB
Valide du 25 à 09h jusqu'au 26 à 09h UTC


250800Z 2509/2609 10008KT CAVOK
BECMG 2518/2521 VRB05KT
TEMPO 2603/2606 BKN020 TX22/2513Z TN13/2605Z
ATIS : +33 4 95 59 19 40
Pas de NOTAMs connus pour ce terrain.



MET'MAP, la Météo Aéronautique d'un coup d'oeil ! - Copyright ORBIFLY Décembre 2007 - Disclaimer

ORBIFLY MET'MAP TEAM :

Programmation & Développement : Alexandra Zaïnal
Conception & Développement : Baudouin d'Aumeries
Co-Programmation & Développement : Marc-Olivier Méhu
Soutien technique & logistique : Manuel Goepfert

Contact : metmap@orbifly.com




SOURCES & CREDITS :

   NOAA